Time;durP1;ratioP1;P1;durP2;ratioP2;P2;SDS_P1;SDS_P2;PMS_P1;PMS_P2;Temp;Humidity;BMP_temperature;BMP_pressure;BME280_temperature;BME280_humidity;BME280_pressure;Samples;Min_cycle;Max_cycle;Signal;HPM_P1;HPM_P2
2023/07/30 00:00:32;;;;;;;1.70;1.60;;;;;;;18.97;86.38;99798.84;5059352;28;20205;-81
2023/07/30 00:02:58;;;;;;;1.13;1.13;;;;;;;18.81;85.91;99806.03;5058502;28;20205;-81
2023/07/30 00:05:25;;;;;;;1.83;1.27;;;;;;;18.87;86.73;99789.81;5058799;28;20296;-80
2023/07/30 00:07:52;;;;;;;1.00;1.00;;;;;;;18.91;87.00;99783.38;5057640;28;20232;-80
2023/07/30 00:10:18;;;;;;;1.20;1.10;;;;;;;18.87;87.41;99768.66;5058470;28;20276;-80
2023/07/30 00:12:46;;;;;;;2.63;1.43;;;;;;;18.79;88.73;99757.66;5057475;28;20210;-80
2023/07/30 00:15:13;;;;;;;1.20;1.20;;;;;;;18.76;88.72;99755.25;5056473;28;20215;-80
2023/07/30 00:17:40;;;;;;;1.00;1.00;;;;;;;18.76;88.48;99752.59;5057813;28;20728;-80
2023/07/30 00:20:08;;;;;;;1.87;1.10;;;;;;;18.75;88.63;99757.03;5057868;28;20224;-80
2023/07/30 00:22:35;;;;;;;2.00;1.27;;;;;;;18.72;88.86;99754.56;5044316;28;20209;-81
2023/07/30 00:25:01;;;;;;;1.40;1.20;;;;;;;18.58;89.15;99744.88;5057518;28;20207;-81
2023/07/30 00:27:27;;;;;;;1.33;1.23;;;;;;;18.56;90.14;99728.28;5057021;28;20247;-80
2023/07/30 00:29:55;;;;;;;2.40;1.30;;;;;;;18.59;89.94;99724.56;5048396;28;20237;-77
2023/07/30 00:32:22;;;;;;;1.17;1.13;;;;;;;18.61;90.02;99722.69;5057058;28;20647;-81
2023/07/30 00:34:48;;;;;;;1.63;1.30;;;;;;;18.60;90.12;99724.47;5056443;28;20205;-80
2023/07/30 00:37:14;;;;;;;2.90;1.50;;;;;;;18.54;90.31;99719.59;5054919;28;20205;-80
2023/07/30 00:39:41;;;;;;;1.27;1.20;;;;;;;18.48;90.62;99717.34;5055843;28;20238;-79
2023/07/30 00:42:07;;;;;;;1.73;1.10;;;;;;;18.46;90.61;99720.06;5055919;28;20224;-80
2023/07/30 00:44:34;;;;;;;1.40;1.30;;;;;;;18.46;90.33;99725.34;5046140;28;20225;-80
2023/07/30 00:47:02;;;;;;;1.23;1.13;;;;;;;18.43;90.42;99725.56;5055114;28;20232;-80
2023/07/30 00:49:28;;;;;;;4.80;1.20;;;;;;;18.42;90.81;99730.94;5057777;28;20232;-79
2023/07/30 00:51:56;;;;;;;1.47;1.37;;;;;;;18.43;90.26;99737.91;5055680;28;20208;-80
2023/07/30 00:54:23;;;;;;;2.40;1.40;;;;;;;18.41;90.42;99740.69;5057374;28;20286;-80
2023/07/30 00:56:53;;;;;;;1.40;1.30;;;;;;;18.43;90.18;99743.19;5058300;28;20208;-78
2023/07/30 00:59:21;;;;;;;2.00;1.40;;;;;;;18.44;90.01;99760.75;5056994;28;20323;-80
2023/07/30 01:01:48;;;;;;;1.43;1.33;;;;;;;18.46;90.15;99759.72;5057784;28;20209;-80
2023/07/30 01:04:16;;;;;;;2.97;1.50;;;;;;;18.38;90.90;99753.22;5053759;28;20749;-80
2023/07/30 01:06:43;;;;;;;1.30;1.20;;;;;;;18.43;90.87;99741.44;5042390;28;20217;-79
2023/07/30 01:09:09;;;;;;;1.50;1.40;;;;;;;18.42;91.12;99745.00;5054438;28;20754;-80
2023/07/30 01:11:37;;;;;;;1.60;1.50;;;;;;;18.46;90.98;99746.50;5054728;28;20209;-80
2023/07/30 01:14:05;;;;;;;1.73;1.50;;;;;;;18.51;90.70;99755.94;5054181;28;20232;-78
2023/07/30 01:16:32;;;;;;;1.27;1.27;;;;;;;18.55;90.61;99750.38;5053994;28;20204;-80
2023/07/30 01:19:03;;;;;;;2.50;1.30;;;;;;;18.58;90.64;99755.44;5053277;28;20220;-78
2023/07/30 01:21:32;;;;;;;2.60;1.67;;;;;;;18.58;90.68;99768.66;5054095;28;20232;-79
2023/07/30 01:23:58;;;;;;;1.40;1.30;;;;;;;18.53;91.49;99756.69;5054784;28;20220;-78
2023/07/30 01:26:28;;;;;;;2.13;1.40;;;;;;;18.59;90.73;99764.22;5069777;28;20203;-79
2023/07/30 01:28:59;;;;;;;1.70;1.60;;;;;;;18.65;90.79;99777.06;5065192;28;20224;-81
2023/07/30 01:31:27;;;;;;;2.93;1.60;;;;;;;18.75;89.87;99785.25;5054780;28;20217;-80
2023/07/30 01:33:56;;;;;;;1.67;1.57;;;;;;;18.74;89.92;99795.00;5054414;28;20213;-79
2023/07/30 01:36:23;;;;;;;1.60;1.50;;;;;;;18.78;89.89;99803.59;5053248;28;20216;-80
2023/07/30 01:38:52;;;;;;;1.60;1.50;;;;;;;18.74;90.56;99795.00;5052898;28;20236;-80
2023/07/30 01:41:19;;;;;;;1.47;1.37;;;;;;;18.81;90.01;99800.75;5054595;28;20220;-78
2023/07/30 01:43:45;;;;;;;1.50;1.40;;;;;;;18.81;90.38;99792.81;5053939;28;20577;-80
2023/07/30 01:46:12;;;;;;;4.67;1.80;;;;;;;18.74;90.49;99789.69;5052671;28;20227;-79
2023/07/30 01:48:38;;;;;;;1.80;1.70;;;;;;;18.60;90.27;99793.22;5052714;28;20228;-81
2023/07/30 01:51:04;;;;;;;1.70;1.60;;;;;;;18.51;90.62;99793.78;5044721;28;20584;-80
2023/07/30 01:53:31;;;;;;;1.80;1.70;;;;;;;18.48;90.96;99787.84;5032087;28;20698;-81
2023/07/30 01:55:59;;;;;;;3.07;1.90;;;;;;;18.55;90.66;99794.44;5049972;28;20208;-81
2023/07/30 01:58:25;;;;;;;1.57;1.47;;;;;;;18.59;90.05;99804.75;5033291;28;20267;-81
2023/07/30 02:00:52;;;;;;;1.73;1.63;;;;;;;18.59;89.94;99814.44;5041036;28;20220;-81
2023/07/30 02:03:18;;;;;;;2.23;1.60;;;;;;;18.60;89.52;99830.22;5053513;28;20303;-81
2023/07/30 02:05:45;;;;;;;2.30;1.93;;;;;;;18.42;90.00;99828.72;5053287;28;20254;-81
2023/07/30 02:08:13;;;;;;;1.97;1.87;;;;;;;18.46;89.77;99828.44;5053032;28;20246;-81
2023/07/30 02:10:39;;;;;;;2.70;2.03;;;;;;;18.47;89.28;99837.19;5053596;28;20235;-81
2023/07/30 02:13:07;;;;;;;2.33;1.83;;;;;;;18.12;90.28;99834.94;5052793;28;20213;-78
2023/07/30 02:15:33;;;;;;;2.27;1.90;;;;;;;17.96;91.38;99815.66;5053394;28;20211;-80
2023/07/30 02:18:00;;;;;;;2.23;1.90;;;;;;;17.73;93.14;99786.16;5053671;28;20207;-78
2023/07/30 02:20:27;;;;;;;1.90;1.80;;;;;;;17.66;94.51;99740.78;5053585;28;20291;-81
2023/07/30 02:22:53;;;;;;;3.07;2.63;;;;;;;17.82;94.68;99732.81;5053179;28;20258;-81
2023/07/30 02:25:20;;;;;;;2.07;1.90;;;;;;;17.56;94.25;99731.72;5053132;28;20678;-80
2023/07/30 02:27:46;;;;;;;2.73;2.00;;;;;;;17.45;94.88;99729.72;5053047;28;20230;-80
2023/07/30 02:30:14;;;;;;;3.77;2.40;;;;;;;17.37;96.28;99699.44;5053350;28;20249;-80
2023/07/30 02:32:42;;;;;;;1.90;1.80;;;;;;;17.35;95.63;99704.81;5053434;28;20203;-80
2023/07/30 02:35:08;;;;;;;1.70;1.60;;;;;;;17.47;94.91;99719.91;5053139;28;20216;-82
2023/07/30 02:37:35;;;;;;;2.80;2.20;;;;;;;17.34;95.35;99718.94;5052980;28;20573;-80
2023/07/30 02:40:04;;;;;;;2.47;2.27;;;;;;;17.38;95.04;99716.97;5037155;28;20612;-80
2023/07/30 02:42:31;;;;;;;4.47;2.53;;;;;;;17.56;93.89;99729.09;5037290;28;20201;-80
2023/07/30 02:44:57;;;;;;;2.63;2.37;;;;;;;17.37;94.75;99733.75;5053036;28;20214;-81
2023/07/30 02:47:25;;;;;;;2.13;2.03;;;;;;;17.35;94.83;99730.34;5050626;28;20236;-80
2023/07/30 02:49:51;;;;;;;3.07;2.00;;;;;;;17.54;94.44;99738.03;5046073;28;20239;-81
2023/07/30 02:52:18;;;;;;;2.07;1.87;;;;;;;17.66;93.64;99747.88;5056842;28;20733;-81
2023/07/30 02:54:44;;;;;;;2.17;1.97;;;;;;;17.56;93.48;99763.41;5057423;28;20211;-81
2023/07/30 02:57:12;;;;;;;2.87;2.00;;;;;;;17.38;94.56;99752.13;5057248;28;20208;-80
2023/07/30 02:59:40;;;;;;;2.57;2.10;;;;;;;17.49;94.07;99755.94;5052273;28;20221;-80
2023/07/30 03:02:06;;;;;;;2.20;1.83;;;;;;;17.58;93.23;99760.66;5045804;28;20257;-80
2023/07/30 03:04:34;;;;;;;3.80;2.33;;;;;;;17.54;92.59;99786.41;5038599;28;20202;-81
2023/07/30 03:07:01;;;;;;;3.23;2.07;;;;;;;17.59;92.48;99799.31;5068365;28;20202;-81
2023/07/30 03:09:28;;;;;;;2.83;2.37;;;;;;;17.62;91.83;99801.75;5057051;28;20233;-80
2023/07/30 03:11:54;;;;;;;2.70;2.50;;;;;;;17.66;91.02;99822.63;5056673;28;20930;-80
2023/07/30 03:14:21;;;;;;;2.60;2.20;;;;;;;17.66;90.44;99841.09;5047954;28;20212;-82
2023/07/30 03:16:47;;;;;;;4.60;2.10;;;;;;;17.63;90.37;99843.91;5057144;28;20227;-81
2023/07/30 03:19:14;;;;;;;2.10;1.90;;;;;;;17.69;90.16;99849.78;5056687;28;20259;-80
2023/07/30 03:21:42;;;;;;;2.20;2.00;;;;;;;17.71;90.00;99855.81;5057118;28;20619;-80
2023/07/30 03:24:09;;;;;;;2.50;2.00;;;;;;;17.76;89.44;99865.19;5056342;28;20219;-81
2023/07/30 03:26:35;;;;;;;3.97;2.10;;;;;;;17.76;88.93;99877.50;5041384;28;20205;-80
2023/07/30 03:29:02;;;;;;;5.07;2.30;;;;;;;17.78;88.98;99889.69;5056837;28;20236;-81
2023/07/30 03:31:29;;;;;;;2.57;2.37;;;;;;;17.64;89.19;99885.22;5057670;28;20217;-80
2023/07/30 03:33:55;;;;;;;3.80;2.60;;;;;;;17.62;89.44;99881.81;5057262;28;20238;-80
2023/07/30 03:36:21;;;;;;;4.07;2.30;;;;;;;17.53;89.99;99870.91;5056608;28;20621;-80
2023/07/30 03:38:49;;;;;;;4.23;2.40;;;;;;;17.58;89.80;99869.72;5070704;28;20227;-78
2023/07/30 03:41:16;;;;;;;3.87;2.20;;;;;;;17.63;89.42;99880.00;5062205;28;20212;-79
2023/07/30 03:43:42;;;;;;;2.80;2.00;;;;;;;17.64;88.81;99902.81;5050274;28;20200;-77
2023/07/30 03:46:09;;;;;;;3.30;2.47;;;;;;;17.60;89.42;99894.25;5056580;28;20212;-80
2023/07/30 03:48:35;;;;;;;3.27;2.20;;;;;;;17.63;89.24;99901.13;5057465;28;20278;-77
2023/07/30 03:51:02;;;;;;;3.63;2.40;;;;;;;17.61;89.25;99898.56;5057173;28;20207;-80
2023/07/30 03:53:29;;;;;;;4.53;2.20;;;;;;;17.56;89.30;99910.31;5056090;28;20584;-79
2023/07/30 03:55:56;;;;;;;4.60;2.20;;;;;;;17.60;89.28;99904.78;5056417;28;20212;-80
2023/07/30 03:58:23;;;;;;;5.00;2.60;;;;;;;17.56;89.20;99907.69;5057075;28;20200;-80
2023/07/30 04:00:49;;;;;;;3.57;2.43;;;;;;;17.49;89.70;99891.34;5055814;28;20207;-79
2023/07/30 04:03:16;;;;;;;3.07;2.17;;;;;;;17.44;89.82;99893.38;5056375;28;20212;-79
2023/07/30 04:05:42;;;;;;;5.27;2.17;;;;;;;17.50;90.50;99879.00;5056970;28;20208;-79
2023/07/30 04:08:08;;;;;;;3.23;2.30;;;;;;;17.39;89.99;99890.16;5056976;28;20766;-80
2023/07/30 04:10:35;;;;;;;4.53;2.40;;;;;;;17.43;91.26;99868.78;5048854;28;20256;-79
2023/07/30 04:13:03;;;;;;;2.57;1.90;;;;;;;17.46;91.54;99860.72;5056569;28;20367;-80
2023/07/30 04:15:29;;;;;;;2.70;2.20;;;;;;;17.42;90.44;99869.75;5056610;28;20655;-80
2023/07/30 04:17:55;;;;;;;3.07;2.13;;;;;;;17.47;91.03;99866.84;5056580;28;20604;-80
2023/07/30 04:20:22;;;;;;;2.30;2.07;;;;;;;17.49;91.45;99862.31;5056910;28;20235;-80
2023/07/30 04:22:48;;;;;;;2.33;2.13;;;;;;;17.52;91.50;99858.66;5056116;28;20219;-79
2023/07/30 04:25:15;;;;;;;2.70;2.17;;;;;;;17.43;91.29;99857.41;5057378;28;20216;-79
2023/07/30 04:27:41;;;;;;;2.30;1.80;;;;;;;17.45;90.91;99874.84;5057711;28;20621;-79
2023/07/30 04:30:10;;;;;;;3.27;2.20;;;;;;;17.47;90.78;99877.41;5058066;28;20230;-79
2023/07/30 04:32:36;;;;;;;5.20;2.83;;;;;;;17.33;89.89;99894.00;5055579;28;20583;-80
2023/07/30 04:35:03;;;;;;;5.47;2.37;;;;;;;17.43;90.14;99897.81;5056624;28;20627;-80
2023/07/30 04:37:30;;;;;;;4.03;2.50;;;;;;;17.46;89.75;99899.44;5054982;28;20685;-80
2023/07/30 04:39:57;;;;;;;4.80;2.60;;;;;;;17.55;89.91;99901.56;5057236;28;20231;-80
2023/07/30 04:42:23;;;;;;;2.37;2.17;;;;;;;17.60;90.39;99899.53;5056260;28;20211;-80
2023/07/30 04:44:50;;;;;;;4.23;2.30;;;;;;;17.63;89.36;99917.81;5055784;28;20212;-79
2023/07/30 04:47:18;;;;;;;4.93;2.30;;;;;;;17.67;88.59;99924.59;5055471;28;20741;-80
2023/07/30 04:49:44;;;;;;;3.53;2.27;;;;;;;17.72;88.42;99931.41;5056748;28;20284;-80
2023/07/30 04:52:11;;;;;;;3.03;2.67;;;;;;;17.69;88.43;99940.38;5055114;28;20208;-78
2023/07/30 04:54:37;;;;;;;4.27;3.27;;;;;;;17.68;89.00;99938.69;5056176;28;20218;-80
2023/07/30 04:57:04;;;;;;;4.27;3.70;;;;;;;17.50;91.08;99895.69;5056129;28;20295;-80
2023/07/30 04:59:33;;;;;;;7.07;3.50;;;;;;;17.58;91.31;99888.19;5055149;28;20218;-79
2023/07/30 05:01:59;;;;;;;6.37;4.83;;;;;;;17.67;91.18;99886.81;5055756;28;20208;-81
2023/07/30 05:04:27;;;;;;;4.73;4.07;;;;;;;17.71;91.31;99876.94;5055372;28;20706;-81
2023/07/30 05:06:54;;;;;;;4.30;3.80;;;;;;;17.73;92.13;99853.94;5055511;28;20728;-78
2023/07/30 05:09:20;;;;;;;6.43;5.13;;;;;;;17.66;92.97;99849.03;5054506;28;20238;-80
2023/07/30 05:11:46;;;;;;;7.20;5.00;;;;;;;17.73;93.48;99824.91;5051215;28;20205;-80
2023/07/30 05:14:13;;;;;;;7.03;5.30;;;;;;;17.77;92.96;99823.78;5051954;28;20203;-81
2023/07/30 05:16:41;;;;;;;6.03;5.63;;;;;;;17.65;93.47;99828.81;5038874;28;20206;-79
2023/07/30 05:19:08;;;;;;;7.13;6.47;;;;;;;17.66;94.18;99805.94;5047597;28;20832;-79
2023/07/30 05:21:35;;;;;;;6.97;6.27;;;;;;;17.71;94.02;99800.38;5054281;28;20207;-79
2023/07/30 05:24:02;;;;;;;7.67;6.87;;;;;;;17.77;93.93;99805.31;5043202;28;20215;-79
2023/07/30 05:26:28;;;;;;;7.93;7.13;;;;;;;17.80;94.17;99811.25;5051499;28;20210;-81
2023/07/30 05:28:55;;;;;;;7.50;6.80;;;;;;;17.80;93.91;99810.38;5040231;28;20641;-79
2023/07/30 05:31:22;;;;;;;8.37;7.33;;;;;;;17.84;93.61;99812.81;5054337;28;20230;-79
2023/07/30 05:33:48;;;;;;;7.60;7.00;;;;;;;17.86;93.20;99826.75;5054976;28;20255;-80
2023/07/30 05:36:15;;;;;;;7.60;7.00;;;;;;;17.90;93.14;99826.56;5055507;28;20205;-80
2023/07/30 05:38:43;;;;;;;7.73;6.93;;;;;;;17.90;92.94;99834.47;5039023;28;20927;-80
2023/07/30 05:41:09;;;;;;;7.87;7.17;;;;;;;17.91;92.47;99847.59;5054873;28;20213;-80
2023/07/30 05:43:36;;;;;;;7.30;6.60;;;;;;;17.88;91.92;99847.81;5054986;28;20208;-82
2023/07/30 05:46:02;;;;;;;6.50;6.00;;;;;;;17.96;90.86;99871.97;5054532;28;20211;-79
2023/07/30 05:48:29;;;;;;;6.47;5.83;;;;;;;17.96;91.26;99865.84;5055583;28;20233;-80
2023/07/30 05:50:55;;;;;;;6.93;6.23;;;;;;;17.94;91.23;99875.59;5054651;28;20209;-79
2023/07/30 05:53:22;;;;;;;7.97;6.27;;;;;;;17.86;90.76;99876.09;5046037;28;20667;-80
2023/07/30 05:55:50;;;;;;;6.50;5.57;;;;;;;17.87;90.67;99877.78;5054229;28;20895;-79
2023/07/30 05:58:17;;;;;;;7.37;6.03;;;;;;;17.82;88.91;99908.84;5053677;28;20220;-80
2023/07/30 06:00:44;;;;;;;5.30;4.90;;;;;;;17.95;88.73;99930.13;5038709;28;20215;-79
2023/07/30 06:03:10;;;;;;;7.33;4.70;;;;;;;17.98;88.79;99936.09;5054631;28;20566;-79
2023/07/30 06:05:40;;;;;;;6.03;4.70;;;;;;;18.09;88.31;99945.19;5055702;28;20235;-80
2023/07/30 06:08:07;;;;;;;4.60;4.20;;;;;;;18.08;88.32;99948.75;5054337;28;20219;-79
2023/07/30 06:10:35;;;;;;;5.30;4.43;;;;;;;18.15;88.15;99952.75;5054903;28;20231;-79
2023/07/30 06:13:03;;;;;;;7.10;4.37;;;;;;;18.13;86.18;99987.19;5053950;28;20214;-80
2023/07/30 06:15:30;;;;;;;5.77;4.30;;;;;;;18.04;86.34;99996.50;5054499;28;20213;-80
2023/07/30 06:17:56;;;;;;;4.93;3.67;;;;;;;18.10;86.54;100005.88;5054326;28;20311;-80
2023/07/30 06:20:23;;;;;;;4.97;4.20;;;;;;;18.04;85.88;100014.13;5054358;28;20235;-79
2023/07/30 06:22:49;;;;;;;4.23;3.87;;;;;;;18.13;86.17;100013.59;5050076;28;20216;-79
2023/07/30 06:25:16;;;;;;;4.03;3.60;;;;;;;18.06;83.35;100057.16;5041429;28;20220;-80
2023/07/30 06:27:42;;;;;;;4.63;3.40;;;;;;;18.06;82.68;100086.22;5053351;28;20207;-79
2023/07/30 06:30:11;;;;;;;4.70;3.43;;;;;;;18.02;81.93;100096.09;5053532;28;20288;-79
2023/07/30 06:32:38;;;;;;;3.07;2.63;;;;;;;17.87;81.77;100125.97;5052221;28;20708;-79
2023/07/30 06:35:05;;;;;;;4.97;3.23;;;;;;;17.99;81.44;100133.22;5053711;28;20207;-79
2023/07/30 06:37:32;;;;;;;3.90;2.70;;;;;;;17.99;81.69;100142.94;5051096;28;20216;-79
2023/07/30 06:39:59;;;;;;;4.40;3.20;;;;;;;18.08;81.13;100145.09;5047071;28;20220;-79
2023/07/30 06:42:25;;;;;;;4.33;3.20;;;;;;;18.11;80.65;100155.47;5053713;28;20248;-80
2023/07/30 06:44:52;;;;;;;10.20;3.03;;;;;;;18.16;79.03;100186.94;5053336;28;20270;-80
2023/07/30 06:47:19;;;;;;;2.57;2.20;;;;;;;18.12;79.42;100203.91;5053140;28;20215;-80
2023/07/30 06:49:46;;;;;;;3.97;2.43;;;;;;;18.20;78.44;100210.47;5052645;28;20297;-78
2023/07/30 06:52:12;;;;;;;3.60;2.20;;;;;;;18.30;77.81;100245.16;5050244;28;20201;-78
2023/07/30 06:54:39;;;;;;;2.50;2.17;;;;;;;18.32;75.58;100284.72;5050517;28;20215;-78
2023/07/30 06:57:06;;;;;;;2.73;1.87;;;;;;;18.38;75.80;100306.38;5037317;28;20282;-78
2023/07/30 06:59:32;;;;;;;4.10;2.10;;;;;;;18.19;74.74;100361.97;5048797;28;20224;-79
2023/07/30 07:01:59;;;;;;;3.33;2.00;;;;;;;18.26;75.36;100339.59;5051383;28;20212;-78
2023/07/30 07:04:27;;;;;;;2.97;2.07;;;;;;;18.43;76.24;100332.56;5051388;28;20730;-78
2023/07/30 07:06:53;;;;;;;2.87;1.70;;;;;;;18.48;75.18;100342.91;5051855;28;20205;-77
2023/07/30 07:09:19;;;;;;;2.97;2.20;;;;;;;18.54;74.52;100342.56;5043446;28;20265;-78
2023/07/30 07:11:46;;;;;;;3.00;2.07;;;;;;;18.50;74.27;100368.31;5043369;28;20215;-78
2023/07/30 07:14:12;;;;;;;2.50;1.87;;;;;;;18.58;74.58;100373.19;5051183;28;20808;-78
2023/07/30 07:16:39;;;;;;;3.70;2.40;;;;;;;18.73;74.71;100360.91;5052075;28;20211;-78
2023/07/30 07:19:06;;;;;;;3.57;2.20;;;;;;;18.83;74.92;100362.19;5051471;28;20232;-77
2023/07/30 07:21:33;;;;;;;3.13;2.00;;;;;;;18.88;73.45;100380.44;5051882;28;20212;-79
2023/07/30 07:24:00;;;;;;;3.97;2.80;;;;;;;18.78;72.92;100398.56;5051748;28;20208;-78
2023/07/30 07:26:25;;;;;;;4.00;2.33;;;;;;;18.57;72.05;100424.34;5052204;28;20200;-77
2023/07/30 07:28:52;;;;;;;6.40;2.50;;;;;;;18.70;73.83;100400.78;5052298;28;20225;-77
2023/07/30 07:31:18;;;;;;;2.03;1.87;;;;;;;18.65;71.29;100441.53;5052525;28;20209;-77
2023/07/30 07:33:45;;;;;;;4.77;2.30;;;;;;;18.74;71.69;100449.91;5049671;28;20216;-79
2023/07/30 07:36:14;;;;;;;2.87;2.03;;;;;;;18.65;70.28;100481.19;5034139;28;20219;-80
2023/07/30 07:38:41;;;;;;;2.23;2.00;;;;;;;18.56;70.45;100484.31;5036363;28;20627;-81
2023/07/30 07:41:08;;;;;;;4.60;2.63;;;;;;;18.75;70.79;100499.19;5036345;28;20293;-80
2023/07/30 07:43:34;;;;;;;3.50;2.00;;;;;;;18.76;69.08;100524.72;5036510;28;20256;-80
2023/07/30 07:46:01;;;;;;;3.50;2.10;;;;;;;18.81;69.20;100535.94;5036689;28;20232;-80
2023/07/30 07:48:27;;;;;;;3.53;2.27;;;;;;;18.90;69.49;100537.28;5036775;28;20228;-80
2023/07/30 07:50:53;;;;;;;2.87;1.90;;;;;;;18.97;69.28;100536.88;5041545;28;20224;-78
2023/07/30 07:53:20;;;;;;;3.23;1.90;;;;;;;18.98;69.13;100543.00;5052765;28;20213;-78
2023/07/30 07:55:48;;;;;;;2.93;2.20;;;;;;;19.09;70.26;100518.63;5053356;28;20276;-78
2023/07/30 07:58:14;;;;;;;4.63;2.20;;;;;;;19.14;68.53;100535.97;5052551;28;20205;-78
2023/07/30 08:00:40;;;;;;;2.83;1.97;;;;;;;19.28;67.80;100534.38;5056217;28;20207;-78
2023/07/30 08:03:07;;;;;;;2.60;2.00;;;;;;;19.40;68.76;100549.59;5038716;28;20535;-78
2023/07/30 08:05:33;;;;;;;2.27;2.07;;;;;;;19.47;69.08;100550.16;5034762;28;20209;-79
2023/07/30 08:08:00;;;;;;;2.73;2.07;;;;;;;19.55;67.80;100569.97;5034579;28;20216;-78
2023/07/30 08:10:26;;;;;;;2.43;1.80;;;;;;;19.51;66.94;100600.19;5054853;28;20228;-80
2023/07/30 08:12:54;;;;;;;3.67;2.13;;;;;;;19.53;67.08;100610.72;5056744;28;20212;-82
2023/07/30 08:15:21;;;;;;;2.53;1.83;;;;;;;19.67;67.01;100607.31;5058652;28;20228;-80
2023/07/30 08:17:47;;;;;;;3.97;1.77;;;;;;;19.78;67.95;100578.47;5057517;28;20204;-81
2023/07/30 08:20:14;;;;;;;4.07;1.90;;;;;;;19.92;66.94;100564.44;5057599;28;20617;-77
2023/07/30 08:22:40;;;;;;;3.33;1.83;;;;;;;19.87;64.41;100630.09;5057069;28;20562;-80
2023/07/30 08:25:08;;;;;;;2.10;1.50;;;;;;;20.00;65.60;100631.16;5057923;28;20205;-77
2023/07/30 08:27:34;;;;;;;2.17;1.97;;;;;;;20.10;66.61;100612.91;5058639;28;20209;-79
2023/07/30 08:30:02;;;;;;;1.70;1.60;;;;;;;20.15;63.92;100640.88;5059873;28;20225;-80
2023/07/30 08:32:28;;;;;;;2.13;1.40;;;;;;;20.14;62.48;100692.19;5058154;28;20208;-79
2023/07/30 08:34:55;;;;;;;3.00;1.50;;;;;;;19.98;62.69;100723.09;5050777;28;20208;-79
2023/07/30 08:37:21;;;;;;;2.77;1.60;;;;;;;20.03;62.23;100724.56;5058651;28;20209;-79
2023/07/30 08:39:48;;;;;;;3.47;1.50;;;;;;;20.13;62.82;100721.41;5058294;28;20274;-78
2023/07/30 08:42:16;;;;;;;1.80;1.63;;;;;;;20.21;61.87;100719.19;5057738;28;20212;-78
2023/07/30 08:44:42;;;;;;;3.37;1.70;;;;;;;20.13;60.07;100775.28;5054888;28;20205;-77
2023/07/30 08:47:10;;;;;;;3.57;1.83;;;;;;;20.14;61.27;100778.81;5057173;28;20198;-79
2023/07/30 08:49:37;;;;;;;2.83;1.57;;;;;;;20.12;60.99;100768.28;5059226;28;20279;-79
2023/07/30 08:52:04;;;;;;;2.70;1.73;;;;;;;20.35;63.50;100698.06;5072521;28;20201;-79
2023/07/30 08:54:32;;;;;;;4.20;1.90;;;;;;;20.42;61.47;100715.38;5057559;28;20205;-79
2023/07/30 08:56:59;;;;;;;2.73;1.83;;;;;;;20.40;60.98;100737.63;5049927;28;20209;-79
2023/07/30 08:59:28;;;;;;;2.03;1.73;;;;;;;20.33;61.42;100720.31;5058579;28;20271;-79
2023/07/30 09:01:55;;;;;;;2.83;1.80;;;;;;;20.39;62.11;100704.91;5059092;28;20211;-78
2023/07/30 09:04:23;;;;;;;4.10;1.80;;;;;;;20.40;61.40;100717.25;5057456;28;20206;-79
2023/07/30 09:06:50;;;;;;;3.43;2.10;;;;;;;20.40;61.73;100729.66;5058969;28;20208;-78
2023/07/30 09:09:17;;;;;;;2.80;2.00;;;;;;;20.45;62.80;100709.03;5057461;28;20232;-79
2023/07/30 09:11:43;;;;;;;2.30;1.90;;;;;;;20.40;61.92;100693.38;5048578;28;20200;-79
2023/07/30 09:14:10;;;;;;;2.37;2.03;;;;;;;20.40;62.17;100706.66;5050600;28;20209;-79
2023/07/30 09:16:37;;;;;;;3.33;1.80;;;;;;;20.42;62.11;100715.38;5057973;28;20200;-78
2023/07/30 09:19:03;;;;;;;2.30;1.83;;;;;;;20.49;61.99;100704.41;5040935;28;20780;-80
2023/07/30 09:21:35;;;;;;;3.20;2.00;;;;;;;20.56;62.20;100705.78;5058595;28;20201;-78
2023/07/30 09:24:05;;;;;;;4.03;1.57;;;;;;;20.36;61.96;100718.38;5053453;28;20263;-79
2023/07/30 09:26:42;;;;;;;5.30;1.67;;;;;;;20.25;62.53;100720.75;5058229;28;20211;-79
2023/07/30 09:29:09;;;;;;;2.07;1.70;;;;;;;20.46;62.72;100697.50;5068524;28;20224;-78
2023/07/30 09:31:46;;;;;;;2.73;1.70;;;;;;;20.39;62.15;100704.06;5060469;28;20200;-79
2023/07/30 09:34:16;;;;;;;3.43;1.90;;;;;;;20.40;62.87;100703.16;5053511;28;20284;-78
2023/07/30 09:36:45;;;;;;;2.25;1.67;;;;;;;20.38;63.13;100700.56;5054444;28;20432;-79
2023/07/30 09:39:15;;;;;;;2.73;1.80;;;;;;;20.44;64.36;100676.34;5053119;28;20230;-79
2023/07/30 09:41:42;;;;;;;2.57;1.70;;;;;;;20.46;62.37;100689.53;5046361;28;20639;-78
2023/07/30 09:44:09;;;;;;;3.50;1.67;;;;;;;20.58;63.21;100696.81;5049687;28;20221;-81
2023/07/30 09:46:43;;;;;;;3.63;1.87;;;;;;;20.69;64.03;100674.97;5046222;28;20213;-78
2023/07/30 09:49:09;;;;;;;3.97;1.83;;;;;;;20.66;63.71;100676.97;5041961;28;20218;-81
2023/07/30 09:51:38;;;;;;;3.23;1.80;;;;;;;20.58;63.77;100699.44;5040447;28;20232;-81
2023/07/30 09:54:06;;;;;;;3.17;1.87;;;;;;;20.57;62.74;100691.56;5051774;28;20234;-82
2023/07/30 09:56:33;;;;;;;6.77;1.80;;;;;;;20.51;63.30;100676.84;5046360;28;20205;-81
2023/07/30 09:58:59;;;;;;;5.73;2.50;;;;;;;20.34;63.11;100687.59;5050028;28;20219;-81
2023/07/30 10:01:27;;;;;;;3.80;2.10;;;;;;;20.47;63.61;100663.88;5036368;28;20206;-82
2023/07/30 10:03:57;;;;;;;2.63;2.13;;;;;;;20.36;64.03;100665.34;5053856;28;20208;-81
2023/07/30 10:06:27;;;;;;;3.20;2.00;;;;;;;20.56;64.55;100650.09;5052159;28;20590;-81
2023/07/30 10:08:55;;;;;;;7.43;1.97;;;;;;;20.53;64.08;100644.94;5046126;28;20235;-82
2023/07/30 10:11:24;;;;;;;5.30;2.20;;;;;;;20.31;63.83;100656.78;5047557;28;20225;-82
2023/07/30 10:13:51;;;;;;;3.47;1.80;;;;;;;20.16;65.04;100647.06;5051406;28;20217;-81
2023/07/30 10:16:18;;;;;;;4.67;1.83;;;;;;;19.88;64.96;100635.31;5018563;28;20210;-83
2023/07/30 10:18:45;;;;;;;3.03;1.93;;;;;;;19.80;65.76;100630.44;5032738;28;20728;-82
2023/07/30 10:21:23;;;;;;;5.77;2.80;;;;;;;19.65;66.13;100613.53;5037526;28;20201;-82
2023/07/30 10:23:59;;;;;;;2.67;2.30;;;;;;;19.57;67.39;100575.19;5051851;28;20204;-81
2023/07/30 10:26:29;;;;;;;3.90;2.87;;;;;;;19.72;67.17;100566.44;5051791;28;20199;-82
2023/07/30 10:29:15;;;;;;;10.17;2.80;;;;;;;19.84;66.71;100573.69;5051525;28;20241;-82
2023/07/30 10:31:43;;;;;;;4.13;2.40;;;;;;;19.98;66.31;100586.19;5052166;28;20224;-81
2023/07/30 10:34:11;;;;;;;25.00;3.40;;;;;;;19.89;65.60;100602.56;5048241;28;20256;-82
2023/07/30 10:36:44;;;;;;;3.57;2.80;;;;;;;19.58;64.66;100629.84;5040367;28;20206;-81
2023/07/30 10:39:16;;;;;;;7.37;3.00;;;;;;;19.62;65.52;100626.06;5051974;28;20258;-81
2023/07/30 10:41:46;;;;;;;5.43;2.93;;;;;;;19.50;65.41;100648.78;5052503;28;20566;-82
2023/07/30 10:44:26;;;;;;;5.30;3.27;;;;;;;19.51;66.01;100637.25;5052235;28;20210;-82
2023/07/30 10:46:53;;;;;;;3.67;3.00;;;;;;;19.37;66.40;100624.75;5051825;28;20234;-82
2023/07/30 10:49:19;;;;;;;4.10;3.10;;;;;;;19.37;67.63;100578.91;5051915;28;20741;-81
2023/07/30 10:51:46;;;;;;;5.23;3.27;;;;;;;19.24;68.33;100568.94;5052091;28;20232;-81
2023/07/30 10:54:13;;;;;;;7.10;4.70;;;;;;;19.31;69.05;100527.13;5052416;28;20207;-80
2023/07/30 10:56:40;;;;;;;5.40;4.30;;;;;;;19.38;69.06;100515.25;5044154;28;20205;-81
2023/07/30 10:59:08;;;;;;;6.83;3.50;;;;;;;19.32;69.31;100507.66;5024505;28;20311;-84
2023/07/30 11:01:39;;;;;;;4.40;3.50;;;;;;;19.39;69.73;100498.47;5048881;28;20215;-83
2023/07/30 11:04:07;;;;;;;4.13;3.30;;;;;;;19.46;69.45;100493.66;5050639;28;20231;-82
2023/07/30 11:06:34;;;;;;;4.27;3.20;;;;;;;19.41;69.98;100482.50;5054948;28;20246;-83
2023/07/30 11:09:00;;;;;;;5.20;3.53;;;;;;;19.45;70.18;100469.00;5039172;28;20238;-83
2023/07/30 11:11:27;;;;;;;7.40;3.70;;;;;;;19.58;70.05;100473.59;5052223;28;20270;-84
2023/07/30 11:13:54;;;;;;;4.53;3.60;;;;;;;19.56;69.99;100456.94;5057936;28;20216;-83
2023/07/30 11:16:21;;;;;;;5.10;3.87;;;;;;;19.53;70.52;100449.19;5058327;28;20219;-83
2023/07/30 11:18:48;;;;;;;5.53;3.63;;;;;;;19.45;70.41;100449.63;5056633;28;20317;-83
2023/07/30 11:21:17;;;;;;;5.73;3.33;;;;;;;19.40;69.66;100467.53;5057219;28;20263;-83
2023/07/30 11:23:44;;;;;;;5.77;3.23;;;;;;;19.53;69.36;100473.88;5056469;28;20204;-81
2023/07/30 11:26:15;;;;;;;6.27;3.60;;;;;;;19.36;69.97;100471.28;5056801;28;20208;-80
2023/07/30 11:28:41;;;;;;;6.00;3.57;;;;;;;19.40;70.68;100449.84;5057237;28;20228;-83